createdAt,value
2018-12-29T00:01:41.952Z,97430.56
2018-12-29T00:04:12.954Z,97435.41
2018-12-29T00:07:02.748Z,97433.40
2018-12-29T00:09:45.604Z,97434.41
2018-12-29T00:12:35.999Z,97431.11
2018-12-29T00:15:07.690Z,97430.45
2018-12-29T00:17:57.499Z,97431.42
2018-12-29T00:20:44.918Z,97428.74
2018-12-29T00:23:27.834Z,97426.41
2018-12-29T00:26:18.143Z,97424.95
2018-12-29T00:29:08.002Z,97432.08
2018-12-29T00:31:51.594Z,97438.61
2018-12-29T00:37:23.836Z,97430.05
2018-12-29T00:40:13.955Z,97440.09
2018-12-29T00:42:58.636Z,97440.06
2018-12-29T00:45:48.417Z,97444.56
2018-12-29T00:48:30.803Z,97443.16
2018-12-29T00:51:20.608Z,97449.00
2018-12-29T00:54:03.899Z,97449.20
2018-12-29T00:56:53.656Z,97456.14
2018-12-29T00:59:36.349Z,97462.02
2018-12-29T01:02:26.093Z,97462.69
2018-12-29T01:05:08.656Z,97470.98
2018-12-29T01:07:58.416Z,97462.56
2018-12-29T01:10:41.035Z,97467.11
2018-12-29T01:13:30.901Z,97474.22
2018-12-29T01:19:16.841Z,97480.14
2018-12-29T01:22:06.691Z,97464.34
2018-12-29T01:24:49.189Z,97475.91
2018-12-29T01:27:39.023Z,97479.88
2018-12-29T01:30:21.185Z,97461.96
2018-12-29T01:33:10.959Z,97485.95
2018-12-29T01:35:53.794Z,97479.26
2018-12-29T01:38:43.591Z,97474.02
2018-12-29T01:41:26.081Z,97481.23
2018-12-29T01:44:15.879Z,97485.81
2018-12-29T01:47:05.614Z,97491.36
2018-12-29T01:49:55.360Z,97493.14
2018-12-29T01:52:45.109Z,97466.60
2018-12-29T01:55:27.168Z,97498.50
2018-12-29T01:58:16.931Z,97498.70
2018-12-29T02:01:01.509Z,97477.00
2018-12-29T02:03:51.276Z,97482.41
2018-12-29T02:06:33.838Z,97481.12
2018-12-29T02:09:23.572Z,97484.17
2018-12-29T02:12:13.488Z,97481.00
2018-12-29T02:15:03.352Z,97487.09
2018-12-29T02:17:53.121Z,97458.64
2018-12-29T02:20:42.927Z,97492.28
2018-12-29T02:23:32.796Z,97463.54
2018-12-29T02:26:22.578Z,97481.49
2018-12-29T02:29:12.683Z,97483.23
2018-12-29T02:32:02.548Z,97472.76
2018-12-29T02:34:52.367Z,97499.30
2018-12-29T02:37:42.284Z,97482.38
2018-12-29T02:40:32.064Z,97491.86
2018-12-29T02:43:21.840Z,97473.13
2018-12-29T02:49:15.661Z,97477.16
2018-12-29T02:51:58.640Z,97477.83
2018-12-29T02:54:48.405Z,97483.38
2018-12-29T02:57:38.205Z,97483.50
2018-12-29T03:00:28.109Z,97477.94
2018-12-29T03:03:17.916Z,97487.12
2018-12-29T03:09:11.327Z,97480.02
2018-12-29T03:11:53.952Z,97471.90
2018-12-29T03:14:43.766Z,97479.58
2018-12-29T03:17:33.629Z,97462.67
2018-12-29T03:25:51.573Z,97450.58
2018-12-29T03:28:41.314Z,97437.98
2018-12-29T03:31:23.803Z,97447.40
2018-12-29T03:34:13.595Z,97447.36
2018-12-29T03:36:56.289Z,97441.75
2018-12-29T03:39:46.467Z,97451.51
2018-12-29T03:42:29.086Z,97455.75
2018-12-29T03:45:18.842Z,97440.27
2018-12-29T03:48:00.802Z,97443.50
2018-12-29T03:50:50.583Z,97443.84
2018-12-29T03:53:33.035Z,97441.73
2018-12-29T03:56:22.761Z,97440.89
2018-12-29T03:59:05.621Z,97424.81
2018-12-29T04:01:55.349Z,97430.56
2018-12-29T04:04:37.601Z,97406.98
2018-12-29T04:07:27.375Z,97420.71
2018-12-29T04:10:12.468Z,97410.84
2018-12-29T04:13:02.596Z,97419.17
2018-12-29T04:15:58.052Z,97389.16
2018-12-29T04:18:36.921Z,97398.48
2018-12-29T04:21:26.822Z,97411.91
2018-12-29T04:24:16.642Z,97414.23
2018-12-29T04:30:10.202Z,97389.03
2018-12-29T04:33:00.023Z,97417.25
2018-12-29T04:35:49.882Z,97434.80
2018-12-29T04:38:39.681Z,97410.02
2018-12-29T04:41:29.521Z,97424.08
2018-12-29T04:44:19.284Z,97424.47
2018-12-29T04:47:09.116Z,97429.09
2018-12-29T04:49:58.893Z,97424.47
2018-12-29T04:52:48.784Z,97422.69
2018-12-29T04:55:38.501Z,97426.51
2018-12-29T04:58:28.253Z,97424.03
2018-12-29T05:01:18.860Z,97414.52
2018-12-29T05:04:00.804Z,97421.67
2018-12-29T05:06:50.716Z,97449.09
2018-12-29T05:09:32.861Z,97464.04
2018-12-29T05:12:22.611Z,97468.45
2018-12-29T05:15:05.266Z,97466.18
2018-12-29T05:17:55.816Z,97468.88
2018-12-29T05:20:37.927Z,97475.98
2018-12-29T05:23:27.658Z,97464.53
2018-12-29T05:29:13.445Z,97466.98
2018-12-29T05:32:03.169Z,97481.85
2018-12-29T05:34:45.692Z,97480.81
2018-12-29T05:37:35.438Z,97490.61
2018-12-29T05:40:18.086Z,97518.09
2018-12-29T05:43:07.911Z,97515.75
2018-12-29T05:45:50.514Z,97509.05
2018-12-29T05:48:32.550Z,97506.81
2018-12-29T05:51:22.511Z,97508.77
2018-12-29T05:54:12.306Z,97516.81
2018-12-29T05:57:21.192Z,97511.34
2018-12-29T06:00:03.647Z,97524.23
2018-12-29T06:02:53.582Z,97524.19
2018-12-29T06:05:43.431Z,97525.14
2018-12-29T06:08:33.211Z,97534.30
2018-12-29T06:14:26.186Z,97553.27
2018-12-29T06:17:10.072Z,97546.26
2018-12-29T06:19:52.271Z,97540.09
2018-12-29T06:22:42.132Z,97520.88
2018-12-29T06:25:31.942Z,97551.48
2018-12-29T06:28:21.649Z,97539.86
2018-12-29T06:31:04.116Z,97523.55
2018-12-29T06:33:53.888Z,97547.17
2018-12-29T06:36:43.670Z,97544.34
2018-12-29T06:39:33.510Z,97547.83
2018-12-29T06:42:23.244Z,97559.29
2018-12-29T06:45:13.035Z,97555.41
2018-12-29T06:48:02.815Z,97548.94
2018-12-29T06:50:52.557Z,97541.64
2018-12-29T06:53:42.368Z,97539.84
2018-12-29T06:56:32.236Z,97568.42
2018-12-29T06:59:22.428Z,97569.73
2018-12-29T07:02:04.689Z,97562.22
2018-12-29T07:04:47.753Z,97552.33
2018-12-29T07:07:37.511Z,97548.45
2018-12-29T07:10:27.305Z,97569.08
2018-12-29T07:13:17.063Z,97576.73
2018-12-29T07:16:06.935Z,97577.92
2018-12-29T07:18:56.793Z,97579.91
2018-12-29T07:21:46.543Z,97579.86
2018-12-29T07:24:36.357Z,97582.78
2018-12-29T07:27:27.092Z,97582.74
2018-12-29T07:30:16.883Z,97580.33
2018-12-29T07:35:57.514Z,97579.86
2018-12-29T07:38:28.922Z,97582.05
2018-12-29T07:41:19.067Z,97589.38
2018-12-29T07:44:08.897Z,97585.98
2018-12-29T07:46:58.703Z,97565.39
2018-12-29T07:49:48.469Z,97592.45
2018-12-29T07:52:38.265Z,97600.16
2018-12-29T07:55:28.015Z,97592.33
2018-12-29T07:58:10.703Z,97597.77
2018-12-29T08:01:00.509Z,97601.16
2018-12-29T08:03:50.317Z,97600.51
2018-12-29T08:06:40.154Z,97607.43
2018-12-29T08:09:29.870Z,97595.03
2018-12-29T08:12:12.756Z,97594.94
2018-12-29T08:15:02.666Z,97604.20
2018-12-29T08:18:03.570Z,97604.20
2018-12-29T08:20:47.750Z,97612.44
2018-12-29T08:23:47.762Z,97587.20
2018-12-29T08:26:18.177Z,97610.05
2018-12-29T08:29:08.305Z,97614.01
2018-12-29T08:31:50.843Z,97607.66
2018-12-29T08:34:40.583Z,97617.81
2018-12-29T08:37:30.743Z,97613.83
2018-12-29T08:40:13.136Z,97612.61
2018-12-29T08:43:02.962Z,97609.16
2018-12-29T08:45:53.155Z,97633.17
2018-12-29T08:48:42.989Z,97645.58
2018-12-29T08:51:32.811Z,97652.28
2018-12-29T08:54:22.637Z,97624.12
2018-12-29T08:57:12.615Z,97652.41
2018-12-29T09:00:02.389Z,97644.63
2018-12-29T09:02:52.256Z,97648.23
2018-12-29T09:05:42.032Z,97651.79
2018-12-29T09:11:37.122Z,97656.86
2018-12-29T09:14:19.324Z,97659.14
2018-12-29T09:17:12.286Z,97656.01
2018-12-29T09:19:53.414Z,97658.69
2018-12-29T09:22:43.239Z,97670.68
2018-12-29T09:25:33.369Z,97679.83
2018-12-29T09:28:15.575Z,97659.13
2018-12-29T09:31:05.348Z,97676.75
2018-12-29T09:33:48.296Z,97684.44
2018-12-29T09:36:38.040Z,97691.30
2018-12-29T09:39:24.712Z,97697.34
2018-12-29T09:48:11.585Z,97701.97
2018-12-29T09:51:01.686Z,97704.16
2018-12-29T09:53:44.073Z,97682.09
2018-12-29T09:56:33.817Z,97712.92
2018-12-29T09:59:16.574Z,97712.66
2018-12-29T10:02:06.314Z,97723.16
2018-12-29T10:04:48.695Z,97704.14
2018-12-29T10:07:38.474Z,97718.49
2018-12-29T10:10:21.321Z,97736.59
2018-12-29T10:13:11.055Z,97726.90
2018-12-29T10:15:53.347Z,97719.85
2018-12-29T10:18:43.103Z,97719.48
2018-12-29T10:21:26.183Z,97702.34
2018-12-29T10:24:15.951Z,97713.93
2018-12-29T10:26:58.460Z,97711.78
2018-12-29T10:29:48.217Z,97699.48
2018-12-29T10:32:30.522Z,97704.69
2018-12-29T10:35:20.252Z,97694.02
2018-12-29T10:38:03.087Z,97706.91
2018-12-29T10:40:52.857Z,97703.72
2018-12-29T10:43:35.104Z,97695.97
2018-12-29T10:46:24.900Z,97694.06
2018-12-29T10:49:07.067Z,97698.23
2018-12-29T10:51:57.279Z,97679.70
2018-12-29T10:54:39.576Z,97694.78
2018-12-29T10:57:29.368Z,97669.18
2018-12-29T11:00:12.491Z,97685.27
2018-12-29T11:03:02.571Z,97676.35
2018-12-29T11:05:44.536Z,97685.94
2018-12-29T11:08:34.347Z,97666.72
2018-12-29T11:11:16.771Z,97685.72
2018-12-29T11:14:06.512Z,97690.84
2018-12-29T11:16:49.000Z,97670.63
2018-12-29T11:19:38.763Z,97690.34
2018-12-29T11:22:20.864Z,97690.27
2018-12-29T11:25:10.640Z,97687.80
2018-12-29T11:27:53.541Z,97687.95
2018-12-29T11:30:43.260Z,97690.62
2018-12-29T11:33:25.250Z,97671.69
2018-12-29T11:36:15.030Z,97694.78
2018-12-29T11:38:57.656Z,97691.69
2018-12-29T11:41:47.782Z,97692.12
2018-12-29T11:44:37.513Z,97689.74
2018-12-29T11:47:27.578Z,97682.41
2018-12-29T11:53:23.308Z,97675.85
2018-12-29T11:56:07.170Z,97655.31
2018-12-29T11:58:49.664Z,97677.64
2018-12-29T12:01:39.660Z,97663.80
2018-12-29T12:04:29.490Z,97669.50
2018-12-29T12:07:13.486Z,97658.59
2018-12-29T12:09:57.443Z,97658.47
2018-12-29T12:12:40.206Z,97646.25
2018-12-29T12:15:30.154Z,97641.08
2018-12-29T12:18:19.992Z,97646.18
2018-12-29T12:21:09.856Z,97652.73
2018-12-29T12:24:18.774Z,97650.82
2018-12-29T12:27:08.608Z,97659.14
2018-12-29T12:29:53.092Z,97651.63
2018-12-29T12:32:42.910Z,97656.38
2018-12-29T12:35:33.250Z,97660.28
2018-12-29T12:38:17.565Z,97669.23
2018-12-29T12:41:07.425Z,97664.08
2018-12-29T12:43:57.340Z,97655.95
2018-12-29T12:46:47.168Z,97653.53
2018-12-29T12:49:37.093Z,97649.95
2018-12-29T12:52:27.136Z,97646.41
2018-12-29T12:55:17.312Z,97646.10
2018-12-29T12:58:07.225Z,97640.56
2018-12-29T13:00:51.706Z,97626.81
2018-12-29T13:03:41.863Z,97624.63
2018-12-29T13:06:31.576Z,97630.29
2018-12-29T13:09:15.412Z,97630.70
2018-12-29T13:12:05.146Z,97629.68
2018-12-29T13:14:47.558Z,97625.20
2018-12-29T13:17:37.314Z,97602.95
2018-12-29T13:20:19.777Z,97616.56
2018-12-29T13:23:09.556Z,97620.23
2018-12-29T13:25:51.424Z,97619.42
2018-12-29T13:28:41.487Z,97610.33
2018-12-29T13:31:23.558Z,97592.75
2018-12-29T13:34:13.316Z,97592.37
2018-12-29T13:36:55.810Z,97595.33
2018-12-29T13:39:45.540Z,97595.77
2018-12-29T13:42:27.872Z,97596.78
2018-12-29T13:45:17.646Z,97597.19
2018-12-29T13:47:48.354Z,97581.69
2018-12-29T13:50:39.412Z,97590.81
2018-12-29T13:53:22.038Z,97598.77
2018-12-29T13:59:17.781Z,97583.58
2018-12-29T14:04:43.605Z,97584.17
2018-12-29T14:07:33.352Z,97587.67
2018-12-29T14:10:16.060Z,97598.67
2018-12-29T14:13:05.824Z,97604.23
2018-12-29T14:15:49.540Z,97600.56
2018-12-29T14:18:39.357Z,97596.12
2018-12-29T14:21:25.144Z,97602.30
2018-12-29T14:24:15.194Z,97611.53
2018-12-29T14:26:57.108Z,97605.47
2018-12-29T14:29:46.916Z,97603.91
2018-12-29T14:32:29.186Z,97608.17
2018-12-29T14:35:18.956Z,97599.44
2018-12-29T14:38:01.205Z,97593.98
2018-12-29T14:40:50.963Z,97576.61
2018-12-29T14:43:37.479Z,97582.09
2018-12-29T14:46:27.248Z,97576.06
2018-12-29T14:49:09.752Z,97570.47
2018-12-29T14:51:59.504Z,97560.61
2018-12-29T14:54:41.735Z,97550.41
2018-12-29T14:57:32.360Z,97538.74
2018-12-29T15:00:14.541Z,97553.81
2018-12-29T15:03:04.597Z,97550.31
2018-12-29T15:05:47.035Z,97549.67
2018-12-29T15:08:37.053Z,97536.53
2018-12-29T15:11:19.756Z,97539.37
2018-12-29T15:14:09.851Z,97533.42
2018-12-29T15:16:53.005Z,97528.81
2018-12-29T15:19:42.801Z,97528.97
2018-12-29T15:22:25.552Z,97539.09
2018-12-29T15:25:15.335Z,97555.02
2018-12-29T15:28:00.010Z,97551.91
2018-12-29T15:30:49.772Z,97558.02
2018-12-29T15:33:32.005Z,97574.64
2018-12-29T15:36:40.848Z,97586.44
2018-12-29T15:39:22.922Z,97596.12
2018-12-29T15:42:12.679Z,97602.88
2018-12-29T15:44:55.060Z,97605.09
2018-12-29T15:47:44.829Z,97596.05
2018-12-29T15:50:27.319Z,97580.00
2018-12-29T15:53:17.353Z,97548.17
2018-12-29T15:56:00.030Z,97556.91
2018-12-29T15:58:49.787Z,97539.75
2018-12-29T16:01:33.523Z,97526.13
2018-12-29T16:07:38.411Z,97515.45
2018-12-29T16:10:21.032Z,97513.05
2018-12-29T16:13:10.816Z,97526.61
2018-12-29T16:16:00.940Z,97496.09
2018-12-29T16:18:44.671Z,97516.58
2018-12-29T16:21:34.407Z,97512.05
2018-12-29T16:24:16.736Z,97515.52
2018-12-29T16:27:06.519Z,97531.30
2018-12-29T16:32:52.411Z,97525.59
2018-12-29T16:35:42.550Z,97539.55
2018-12-29T16:38:26.494Z,97529.39
2018-12-29T16:41:16.520Z,97517.09
2018-12-29T16:43:59.011Z,97501.90
2018-12-29T16:46:48.767Z,97516.83
2018-12-29T16:49:31.294Z,97506.58
2018-12-29T16:52:21.047Z,97497.27
2018-12-29T16:55:03.780Z,97500.81
2018-12-29T16:57:53.556Z,97503.59
2018-12-29T17:00:35.925Z,97496.16
2018-12-29T17:03:25.721Z,97484.42
2018-12-29T17:06:08.195Z,97461.69
2018-12-29T17:08:57.986Z,97477.66
2018-12-29T17:11:40.359Z,97482.23
2018-12-29T17:14:30.998Z,97484.12
2018-12-29T17:17:14.455Z,97490.03
2018-12-29T17:20:04.527Z,97481.73
2018-12-29T17:22:48.910Z,97467.55
2018-12-29T17:25:38.706Z,97464.95
2018-12-29T17:28:21.125Z,97445.76
2018-12-29T17:31:10.888Z,97461.33
2018-12-29T17:33:53.834Z,97459.23
2018-12-29T17:36:43.927Z,97454.17
2018-12-29T17:39:33.160Z,97444.19
2018-12-29T17:42:22.941Z,97447.02
2018-12-29T17:48:07.672Z,97447.45
2018-12-29T17:50:57.634Z,97440.25
2018-12-29T17:53:47.921Z,97430.77
2018-12-29T17:56:33.508Z,97428.49
2018-12-29T17:59:16.219Z,97428.45
2018-12-29T18:02:00.038Z,97452.30
2018-12-29T18:04:50.141Z,97461.47
2018-12-29T18:07:39.901Z,97448.84
2018-12-29T18:13:21.401Z,97474.35
2018-12-29T18:16:11.592Z,97483.21
2018-12-29T18:18:53.867Z,97483.66
2018-12-29T18:21:43.930Z,97493.37
2018-12-29T18:24:26.885Z,97515.09
2018-12-29T18:27:18.212Z,97555.45
2018-12-29T18:30:04.761Z,97543.35
2018-12-29T18:36:00.499Z,97559.38
2018-12-29T18:38:47.929Z,97577.37
2018-12-29T18:41:31.661Z,97580.86
2018-12-29T18:47:12.468Z,97601.00
2018-12-29T18:50:02.179Z,97577.17
2018-12-29T18:52:44.344Z,97573.49
2018-12-29T19:08:15.770Z,97530.98
2018-12-29T19:11:02.530Z,97524.13
2018-12-29T19:22:35.150Z,97488.41
2018-12-29T19:25:24.925Z,97478.20
2018-12-29T19:28:07.677Z,97491.18
2018-12-29T19:33:41.802Z,97482.59
2018-12-29T19:36:31.544Z,97494.68
2018-12-29T19:39:17.920Z,97509.07
2018-12-29T19:42:26.861Z,97518.48
2018-12-29T19:48:26.190Z,97526.05
2018-12-29T19:51:08.474Z,97533.89
2018-12-29T19:56:49.285Z,97555.09
2018-12-29T20:02:33.506Z,97568.63
2018-12-29T20:05:23.557Z,97553.09
2018-12-29T20:08:08.056Z,97558.64
2018-12-29T20:10:54.745Z,97569.42
2018-12-29T20:16:31.710Z,97572.79
2018-12-29T20:25:16.872Z,97535.76
2018-12-29T20:27:59.381Z,97536.73
2018-12-29T20:33:32.882Z,97548.41
2018-12-29T20:36:23.026Z,97552.09
2018-12-29T20:39:06.155Z,97551.05
2018-12-29T20:41:55.940Z,97519.09
2018-12-29T20:44:45.698Z,97551.10
2018-12-29T20:47:28.599Z,97549.03
2018-12-29T20:50:18.421Z,97515.68
2018-12-29T20:53:08.215Z,97533.50
2018-12-29T20:56:17.113Z,97511.47
2018-12-29T20:59:06.958Z,97533.77
2018-12-29T21:01:56.778Z,97496.58
2018-12-29T21:04:46.596Z,97488.31
2018-12-29T21:07:36.298Z,97467.46
2018-12-29T21:10:26.037Z,97472.61
2018-12-29T21:13:15.785Z,97476.72
2018-12-29T21:15:59.056Z,97470.59
2018-12-29T21:18:49.213Z,97466.88
2018-12-29T21:21:36.094Z,97461.50
2018-12-29T21:24:25.861Z,97485.97
2018-12-29T21:27:08.153Z,97513.45
2018-12-29T21:29:57.896Z,97499.76
2018-12-29T21:32:42.576Z,97498.64
2018-12-29T21:35:32.618Z,97488.00
2018-12-29T21:38:17.126Z,97514.68
2018-12-29T21:41:06.876Z,97543.33
2018-12-29T21:43:49.140Z,97518.63
2018-12-29T21:46:39.216Z,97535.27
2018-12-29T21:49:28.913Z,97549.77
2018-12-29T21:52:18.691Z,97541.09
2018-12-29T21:55:05.025Z,97559.35
2018-12-29T21:57:54.763Z,97546.66
2018-12-29T22:00:39.483Z,97529.78
2018-12-29T22:03:29.711Z,97539.36
2018-12-29T22:06:12.349Z,97522.19
2018-12-29T22:09:02.131Z,97504.86
2018-12-29T22:11:44.200Z,97515.91
2018-12-29T22:14:34.039Z,97510.23
2018-12-29T22:17:23.976Z,97493.21
2018-12-29T22:20:06.288Z,97493.05
2018-12-29T22:22:56.116Z,97505.80
2018-12-29T22:25:48.268Z,97518.88
2018-12-29T22:28:56.887Z,97519.00
2018-12-29T22:34:39.744Z,97492.12
2018-12-29T22:37:29.546Z,97513.42
2018-12-29T22:40:14.250Z,97495.44
2018-12-29T22:43:04.019Z,97494.05
2018-12-29T22:45:50.133Z,97485.45
2018-12-29T22:48:39.878Z,97485.18
2018-12-29T22:51:21.854Z,97482.50
2018-12-29T22:54:11.619Z,97473.87
2018-12-29T22:56:54.945Z,97471.36
2018-12-29T22:59:37.906Z,97454.13
2018-12-29T23:02:27.895Z,97454.58
2018-12-29T23:05:17.706Z,97459.77
2018-12-29T23:08:07.616Z,97461.38
2018-12-29T23:10:57.512Z,97439.02
2018-12-29T23:13:47.505Z,97448.58
2018-12-29T23:16:37.378Z,97448.76
2018-12-29T23:19:27.226Z,97454.39
2018-12-29T23:22:17.122Z,97458.06
2018-12-29T23:25:07.046Z,97454.89
2018-12-29T23:27:51.481Z,97439.45
2018-12-29T23:30:41.337Z,97449.56
2018-12-29T23:33:31.306Z,97450.81
2018-12-29T23:36:21.147Z,97458.16
2018-12-29T23:39:11.038Z,97456.72
2018-12-29T23:41:55.311Z,97452.38
2018-12-29T23:44:45.154Z,97459.86
2018-12-29T23:47:34.985Z,97456.05
2018-12-29T23:50:24.973Z,97428.20
2018-12-29T23:53:08.869Z,97438.01
2018-12-29T23:55:58.727Z,97432.63
2018-12-29T23:58:48.525Z,97427.02
